createdAt,value
2022-11-23T00:00:21.500Z,2.02
2022-11-23T00:03:25.592Z,1.90
2022-11-23T00:06:29.638Z,1.94
2022-11-23T00:09:33.890Z,1.86
2022-11-23T00:12:37.482Z,2.08
2022-11-23T00:15:41.256Z,2.08
2022-11-23T00:18:45.714Z,2.21
2022-11-23T00:21:50.123Z,1.93
2022-11-23T00:24:54.031Z,2.33
2022-11-23T00:27:57.965Z,2.03
2022-11-23T00:31:01.766Z,2.39
2022-11-23T00:34:06.032Z,1.96
2022-11-23T00:37:10.388Z,1.97
2022-11-23T00:40:14.408Z,2.12
2022-11-23T00:43:18.426Z,1.86
2022-11-23T00:46:22.369Z,1.93
2022-11-23T00:49:25.991Z,1.82
2022-11-23T00:52:30.113Z,1.74
2022-11-23T00:55:34.072Z,1.83
2022-11-23T00:58:38.042Z,1.91
2022-11-23T01:01:42.268Z,1.78
2022-11-23T01:04:46.328Z,1.75
2022-11-23T01:07:49.900Z,1.77
2022-11-23T01:10:53.973Z,1.77
2022-11-23T01:13:58.149Z,1.64
2022-11-23T01:17:02.435Z,1.77
2022-11-23T01:20:06.694Z,1.69
2022-11-23T01:23:10.774Z,1.72
2022-11-23T01:26:14.761Z,1.53
2022-11-23T01:29:18.790Z,1.80
2022-11-23T01:32:22.912Z,1.74
2022-11-23T01:35:26.963Z,1.68
2022-11-23T01:38:31.158Z,1.62
2022-11-23T01:41:35.306Z,1.76
2022-11-23T01:44:39.321Z,1.91
2022-11-23T01:47:43.441Z,1.84
2022-11-23T01:50:47.372Z,1.81
2022-11-23T01:53:51.415Z,2.09
2022-11-23T01:56:55.516Z,2.02
2022-11-23T01:59:59.723Z,2.11
2022-11-23T02:03:03.284Z,2.15
2022-11-23T02:06:07.321Z,2.11
2022-11-23T02:09:11.577Z,2.24
2022-11-23T02:12:15.814Z,2.44
2022-11-23T02:15:19.537Z,2.53
2022-11-23T02:18:23.565Z,2.57
2022-11-23T02:21:27.501Z,2.42
2022-11-23T02:24:31.295Z,2.55
2022-11-23T02:27:35.461Z,2.41
2022-11-23T02:30:39.591Z,2.43
2022-11-23T02:33:43.100Z,2.43
2022-11-23T02:36:47.326Z,2.32
2022-11-23T02:39:51.116Z,2.66
2022-11-23T02:42:55.199Z,2.61
2022-11-23T02:45:59.239Z,2.51
2022-11-23T02:49:02.669Z,2.68
2022-11-23T02:52:08.018Z,2.81
2022-11-23T02:55:13.291Z,2.87
2022-11-23T02:58:17.329Z,2.69
2022-11-23T03:01:21.368Z,2.69
2022-11-23T03:04:27.843Z,2.94
2022-11-23T03:07:32.034Z,2.78
2022-11-23T03:10:38.222Z,2.94
2022-11-23T03:13:42.461Z,2.70
2022-11-23T03:16:46.678Z,2.13
2022-11-23T03:19:50.703Z,2.28
2022-11-23T03:22:54.771Z,2.71
2022-11-23T03:25:58.895Z,1.86
2022-11-23T03:29:03.209Z,1.74
2022-11-23T03:32:07.363Z,1.37
2022-11-23T03:35:10.879Z,1.32
2022-11-23T03:38:14.854Z,1.21
2022-11-23T03:41:18.422Z,1.24
2022-11-23T03:44:22.615Z,1.08
2022-11-23T03:47:26.580Z,0.97
2022-11-23T03:50:30.508Z,1.92
2022-11-23T03:53:34.699Z,2.69
2022-11-23T03:56:38.824Z,2.66
2022-11-23T03:59:43.049Z,2.74
2022-11-23T04:02:47.038Z,2.95
2022-11-23T04:05:50.882Z,3.12
2022-11-23T04:09:00.409Z,3.24
2022-11-23T04:12:05.903Z,3.01
2022-11-23T04:15:09.663Z,2.81
2022-11-23T04:18:14.082Z,2.56
2022-11-23T04:21:17.938Z,2.34
2022-11-23T04:24:21.934Z,2.49
2022-11-23T04:27:26.202Z,2.62
2022-11-23T04:30:30.342Z,2.87
2022-11-23T04:33:34.443Z,2.60
2022-11-23T04:36:38.351Z,2.55
2022-11-23T04:39:42.202Z,2.52
2022-11-23T04:42:46.019Z,2.41
2022-11-23T04:45:50.189Z,2.44
2022-11-23T04:48:55.005Z,2.76
2022-11-23T04:52:01.699Z,2.52
2022-11-23T04:55:05.470Z,2.57
2022-11-23T04:58:09.508Z,2.53
2022-11-23T05:01:13.539Z,2.66
2022-11-23T05:04:18.117Z,2.74
2022-11-23T05:07:22.421Z,2.55
2022-11-23T05:10:26.188Z,2.66
2022-11-23T05:13:30.603Z,2.93
2022-11-23T05:16:37.864Z,2.68
2022-11-23T05:19:42.134Z,2.85
2022-11-23T05:22:51.857Z,2.82
2022-11-23T05:25:56.607Z,2.63
2022-11-23T05:29:00.407Z,3.22
2022-11-23T05:32:05.457Z,2.88
2022-11-23T05:35:09.387Z,2.69
2022-11-23T05:38:15.912Z,2.58
2022-11-23T05:41:19.969Z,2.74
2022-11-23T05:44:23.866Z,3.09
2022-11-23T05:47:27.728Z,2.46
2022-11-23T05:50:31.530Z,2.59
2022-11-23T05:53:37.724Z,2.58
2022-11-23T05:56:41.819Z,2.93
2022-11-23T05:59:47.572Z,2.66
2022-11-23T06:02:51.542Z,2.60
2022-11-23T06:05:55.515Z,2.64
2022-11-23T06:08:59.650Z,2.77
2022-11-23T06:12:03.928Z,2.62
2022-11-23T06:15:10.161Z,2.89
2022-11-23T06:18:14.240Z,2.87
2022-11-23T06:21:17.921Z,2.47
2022-11-23T06:24:21.760Z,2.74
2022-11-23T06:27:25.896Z,2.64
2022-11-23T06:30:30.125Z,2.67
2022-11-23T06:33:34.134Z,2.42
2022-11-23T06:36:38.309Z,2.53
2022-11-23T06:39:42.381Z,2.68
2022-11-23T06:42:46.467Z,2.74
2022-11-23T06:45:50.575Z,2.87
2022-11-23T06:48:54.557Z,2.87
2022-11-23T06:51:58.523Z,2.80
2022-11-23T06:55:02.641Z,3.01
2022-11-23T06:58:07.823Z,3.12
2022-11-23T07:01:11.862Z,3.27
2022-11-23T07:04:15.958Z,3.03
2022-11-23T07:07:20.148Z,2.98
2022-11-23T07:10:24.204Z,3.03
2022-11-23T07:13:28.537Z,3.07
2022-11-23T07:16:32.692Z,3.34
2022-11-23T07:19:36.625Z,3.09
2022-11-23T07:22:40.589Z,3.23
2022-11-23T07:25:44.947Z,3.27
2022-11-23T07:28:48.880Z,3.72
2022-11-23T07:31:52.289Z,3.61
2022-11-23T07:34:56.432Z,5.47
2022-11-23T07:38:00.462Z,4.15
2022-11-23T07:41:04.392Z,3.22
2022-11-23T07:44:09.210Z,3.18
2022-11-23T07:47:13.260Z,2.96
2022-11-23T07:50:18.006Z,3.45
2022-11-23T07:53:22.317Z,3.30
2022-11-23T07:56:26.511Z,3.02
2022-11-23T07:59:30.759Z,3.32
2022-11-23T08:02:34.966Z,3.29
2022-11-23T08:05:39.200Z,3.21
2022-11-23T08:08:43.316Z,3.39
2022-11-23T08:11:47.469Z,3.41
2022-11-23T08:14:51.406Z,3.36
2022-11-23T08:17:55.573Z,3.27
2022-11-23T08:20:59.743Z,3.62
2022-11-23T08:24:05.756Z,3.05
2022-11-23T08:27:09.823Z,3.46
2022-11-23T08:30:15.191Z,3.62
2022-11-23T08:33:19.138Z,3.27
2022-11-23T08:36:23.022Z,3.16
2022-11-23T08:39:27.268Z,3.04
2022-11-23T08:42:31.338Z,3.21
2022-11-23T08:45:35.168Z,3.52
2022-11-23T08:48:39.211Z,3.45
2022-11-23T08:51:48.546Z,3.22
2022-11-23T08:54:53.936Z,3.50
2022-11-23T08:57:57.736Z,3.31
2022-11-23T09:01:02.130Z,3.26
2022-11-23T09:04:05.713Z,3.39
2022-11-23T09:07:09.860Z,3.48
2022-11-23T09:10:18.408Z,3.37
2022-11-23T09:13:22.860Z,3.61
2022-11-23T09:16:32.415Z,3.33
2022-11-23T09:19:38.889Z,3.55
2022-11-23T09:22:42.909Z,3.59
2022-11-23T09:25:46.912Z,3.60
2022-11-23T09:28:50.728Z,3.51
2022-11-23T09:31:54.751Z,3.65
2022-11-23T09:34:58.602Z,3.02
2022-11-23T09:38:03.026Z,3.19
2022-11-23T09:41:07.953Z,2.96
2022-11-23T09:44:13.159Z,2.83
2022-11-23T09:47:17.383Z,2.80
2022-11-23T09:50:26.432Z,2.52
2022-11-23T09:57:05.654Z,2.39
2022-11-23T10:00:10.063Z,2.54
2022-11-23T10:03:14.196Z,2.51
2022-11-23T10:06:17.925Z,3.72
2022-11-23T10:09:21.813Z,16.77
2022-11-23T10:12:25.959Z,10.20
2022-11-23T10:15:29.989Z,2.98
2022-11-23T10:18:33.920Z,2.15
2022-11-23T10:21:37.932Z,1.86
2022-11-23T10:24:41.962Z,1.44
2022-11-23T10:27:47.927Z,1.57
2022-11-23T10:30:52.077Z,1.58
2022-11-23T10:33:55.839Z,4.72
2022-11-23T10:36:59.921Z,1.63
2022-11-23T10:40:03.904Z,1.57
2022-11-23T10:43:08.127Z,1.71
2022-11-23T10:46:12.329Z,1.45
2022-11-23T10:49:16.300Z,1.47
2022-11-23T10:52:20.310Z,1.41
2022-11-23T10:55:24.136Z,1.63
2022-11-23T10:58:28.154Z,1.42
2022-11-23T11:01:32.209Z,1.44
2022-11-23T11:04:35.930Z,1.34
2022-11-23T11:07:39.817Z,1.25
2022-11-23T11:10:44.250Z,1.38
2022-11-23T11:13:48.062Z,1.31
2022-11-23T11:16:52.029Z,1.44
2022-11-23T11:19:55.809Z,1.58
2022-11-23T11:23:00.235Z,1.35
2022-11-23T11:26:06.177Z,1.77
2022-11-23T11:29:10.086Z,1.67
2022-11-23T11:32:13.739Z,1.39
2022-11-23T11:35:21.211Z,1.60
2022-11-23T11:38:25.485Z,1.64
2022-11-23T11:41:29.509Z,1.40
2022-11-23T11:44:34.013Z,1.49
2022-11-23T11:47:38.519Z,1.50
2022-11-23T11:50:42.519Z,1.29
2022-11-23T11:53:46.463Z,1.27
2022-11-23T11:56:51.223Z,1.44
2022-11-23T11:59:56.233Z,1.26
2022-11-23T12:03:00.271Z,1.90
2022-11-23T12:06:05.768Z,1.42
2022-11-23T12:09:09.757Z,1.49
2022-11-23T12:12:13.466Z,1.46
2022-11-23T12:15:47.211Z,1.50
2022-11-23T12:29:42.704Z,2.42
2022-11-23T12:32:46.790Z,2.58
2022-11-23T12:35:50.471Z,1.63
2022-11-23T12:38:54.680Z,1.52
2022-11-23T12:41:58.432Z,1.43
2022-11-23T12:45:02.338Z,1.45
2022-11-23T12:48:06.632Z,1.56
2022-11-23T12:51:10.808Z,1.59
2022-11-23T12:54:15.061Z,1.26
2022-11-23T12:57:19.364Z,1.36
2022-11-23T13:00:23.276Z,1.35
2022-11-23T13:03:27.212Z,3.77
2022-11-23T13:06:31.462Z,2.83
2022-11-23T13:09:35.558Z,1.48
2022-11-23T13:12:39.363Z,1.68
2022-11-23T13:15:43.559Z,1.41
2022-11-23T13:18:47.453Z,1.67
2022-11-23T13:21:51.769Z,1.46
2022-11-23T13:24:55.575Z,1.52
2022-11-23T13:27:59.557Z,1.72
2022-11-23T13:31:19.168Z,1.66
2022-11-23T13:34:23.021Z,2.22
2022-11-23T13:37:27.199Z,2.40
2022-11-23T13:40:32.140Z,1.78
2022-11-23T13:43:36.294Z,1.75
2022-11-23T13:46:40.501Z,1.75
2022-11-23T13:49:44.824Z,1.78
2022-11-23T13:52:51.147Z,1.68
2022-11-23T13:55:54.924Z,1.83
2022-11-23T13:58:58.807Z,2.00
2022-11-23T14:02:02.812Z,1.70
2022-11-23T14:05:08.326Z,1.67
2022-11-23T14:08:12.328Z,2.03
2022-11-23T14:11:18.482Z,1.73
2022-11-23T14:14:22.370Z,1.61
2022-11-23T14:17:27.136Z,1.71
2022-11-23T14:20:31.169Z,1.83
2022-11-23T14:23:35.461Z,1.65
2022-11-23T14:26:39.592Z,1.85
2022-11-23T14:29:43.896Z,1.57
2022-11-23T14:32:47.603Z,1.61
2022-11-23T14:35:52.696Z,1.40
2022-11-23T14:38:57.144Z,1.60
2022-11-23T14:42:01.912Z,1.64
2022-11-23T14:45:05.906Z,1.50
2022-11-23T14:48:09.917Z,1.54
2022-11-23T14:51:14.191Z,1.67
2022-11-23T14:54:18.626Z,1.67
2022-11-23T14:57:23.049Z,1.75
2022-11-23T15:00:27.240Z,1.43
2022-11-23T15:06:54.903Z,1.68
2022-11-23T15:09:58.865Z,1.55
2022-11-23T15:13:03.127Z,1.50
2022-11-23T15:16:07.147Z,1.57
2022-11-23T15:19:11.101Z,1.63
2022-11-23T15:22:15.288Z,1.84
2022-11-23T15:25:21.054Z,1.87
2022-11-23T15:28:28.070Z,1.64
2022-11-23T15:31:32.272Z,1.73
2022-11-23T15:34:37.284Z,1.73
2022-11-23T15:37:41.318Z,1.92
2022-11-23T15:40:45.457Z,2.04
2022-11-23T15:43:49.324Z,2.14
2022-11-23T15:46:53.208Z,2.09
2022-11-23T15:49:57.364Z,2.08
2022-11-23T15:53:01.087Z,1.87
2022-11-23T15:56:06.688Z,2.08
2022-11-23T15:59:13.758Z,2.34
2022-11-23T16:05:47.940Z,2.38
2022-11-23T16:12:23.037Z,2.02
2022-11-23T16:15:27.132Z,1.88
2022-11-23T16:18:30.843Z,2.07
2022-11-23T16:21:34.623Z,1.98
2022-11-23T16:24:38.882Z,2.04
2022-11-23T16:27:42.664Z,1.89
2022-11-23T16:30:46.831Z,1.99
2022-11-23T16:33:50.631Z,1.81
2022-11-23T16:36:54.575Z,2.15
2022-11-23T16:39:58.520Z,2.27
2022-11-23T16:43:02.079Z,2.83
2022-11-23T16:46:06.280Z,2.48
2022-11-23T16:49:10.529Z,2.68
2022-11-23T16:52:14.498Z,2.57
2022-11-23T16:55:18.584Z,2.75
2022-11-23T16:58:24.635Z,2.92
2022-11-23T17:01:28.624Z,2.73
2022-11-23T17:04:34.071Z,2.60
2022-11-23T17:07:38.369Z,5.86
2022-11-23T17:10:42.128Z,3.05
2022-11-23T17:13:45.909Z,3.43
2022-11-23T17:16:49.862Z,3.45
2022-11-23T17:19:53.655Z,3.60
2022-11-23T17:22:59.001Z,3.93
2022-11-23T17:26:02.931Z,3.99
2022-11-23T17:29:07.137Z,3.58
2022-11-23T17:32:10.839Z,3.99
2022-11-23T17:35:14.949Z,4.17
2022-11-23T17:38:19.342Z,3.93
2022-11-23T17:41:23.102Z,3.50
2022-11-23T17:44:27.136Z,3.15
2022-11-23T17:47:31.181Z,3.29
2022-11-23T17:50:35.647Z,2.80
2022-11-23T17:57:03.218Z,3.21
2022-11-23T18:00:08.482Z,3.14
2022-11-23T18:03:13.726Z,2.24
2022-11-23T18:06:18.988Z,1.73
2022-11-23T18:09:24.954Z,1.63
2022-11-23T18:12:29.091Z,1.73
2022-11-23T18:15:33.509Z,1.47
2022-11-23T18:18:37.025Z,1.62
2022-11-23T18:21:40.853Z,1.89
2022-11-23T18:24:45.052Z,1.89
2022-11-23T18:27:48.847Z,2.24
2022-11-23T18:30:53.011Z,2.37
2022-11-23T18:33:57.059Z,2.37
2022-11-23T18:37:01.138Z,2.65
2022-11-23T18:40:04.986Z,2.36
2022-11-23T18:43:08.901Z,2.51
2022-11-23T18:46:12.935Z,2.64
2022-11-23T18:49:16.870Z,2.92
2022-11-23T18:52:20.667Z,3.04
2022-11-23T18:55:24.489Z,2.82
2022-11-23T18:58:28.520Z,3.22
2022-11-23T19:01:32.416Z,2.59
2022-11-23T19:04:36.434Z,2.45
2022-11-23T19:07:40.663Z,2.29
2022-11-23T19:10:44.747Z,2.49
2022-11-23T19:13:48.615Z,2.54
2022-11-23T19:16:52.663Z,2.52
2022-11-23T19:19:56.530Z,2.56
2022-11-23T19:23:00.797Z,4.45
2022-11-23T19:26:04.701Z,4.35
2022-11-23T19:29:08.654Z,2.74
2022-11-23T19:32:12.603Z,2.54
2022-11-23T19:35:21.871Z,2.49
2022-11-23T19:38:26.930Z,2.38
2022-11-23T19:41:31.085Z,2.74
2022-11-23T19:44:35.318Z,2.55
2022-11-23T19:47:39.130Z,2.92
2022-11-23T19:50:43.323Z,2.34
2022-11-23T19:53:47.639Z,2.58
2022-11-23T19:56:51.675Z,2.81
2022-11-23T19:59:55.705Z,2.85
2022-11-23T20:02:59.700Z,3.24
2022-11-23T20:06:04.021Z,4.43
2022-11-23T20:09:08.270Z,3.45
2022-11-23T20:12:12.094Z,3.17
2022-11-23T20:15:16.058Z,3.12
2022-11-23T20:18:20.259Z,3.23
2022-11-23T20:28:21.616Z,3.32
2022-11-23T20:31:25.827Z,3.07
2022-11-23T20:44:49.059Z,3.15
2022-11-23T21:05:37.959Z,4.47
2022-11-23T21:47:47.736Z,5.80
2022-11-23T22:04:55.621Z,3.54
2022-11-23T22:14:51.191Z,3.90
2022-11-23T22:17:55.156Z,3.16
2022-11-23T22:20:59.121Z,3.31
2022-11-23T22:24:03.538Z,3.08
2022-11-23T22:27:09.653Z,3.19
2022-11-23T22:30:13.667Z,2.80
2022-11-23T22:33:17.535Z,2.91
2022-11-23T22:36:22.658Z,3.11
2022-11-23T22:39:28.755Z,3.06
2022-11-23T22:42:37.127Z,3.08
2022-11-23T22:45:41.100Z,2.54
2022-11-23T22:48:45.599Z,2.36
2022-11-23T22:51:49.687Z,2.39
2022-11-23T22:54:53.734Z,2.62
2022-11-23T22:57:57.929Z,2.70
2022-11-23T23:01:05.328Z,2.41
2022-11-23T23:04:09.093Z,2.53
2022-11-23T23:07:16.572Z,2.90
2022-11-23T23:10:22.000Z,2.87
2022-11-23T23:13:26.007Z,2.98
2022-11-23T23:16:30.224Z,2.99
2022-11-23T23:19:33.990Z,2.89
2022-11-23T23:22:40.883Z,3.17
2022-11-23T23:25:47.097Z,2.63
2022-11-23T23:28:51.156Z,2.55
2022-11-23T23:31:55.124Z,2.35
2022-11-23T23:34:58.845Z,2.54
2022-11-23T23:38:02.951Z,2.74
2022-11-23T23:41:07.239Z,2.65
2022-11-23T23:44:11.144Z,2.52
2022-11-23T23:47:15.304Z,2.42
2022-11-23T23:50:19.414Z,2.66
2022-11-23T23:53:24.695Z,2.73
2022-11-23T23:56:28.734Z,2.60
2022-11-23T23:59:32.365Z,2.71
